Time;durP1;ratioP1;P1;durP2;ratioP2;P2;SDS_P1;SDS_P2;PMS_P1;PMS_P2;Temp;Humidity;BMP_temperature;BMP_pressure;BME280_temperature;BME280_humidity;BME280_pressure;Samples;Min_cycle;Max_cycle;Signal;HPM_P1;HPM_P2
2021/05/04 00:00:49;;;;;;;7.20;3.60;;;;;;;2.17;78.35;95396.31;5033654;28;20115;-72
2021/05/04 00:03:17;;;;;;;7.68;3.80;;;;;;;2.15;79.03;95393.13;5028907;28;20045;-72
2021/05/04 00:05:43;;;;;;;6.65;3.65;;;;;;;2.04;79.03;95399.84;5033290;28;20034;-72
2021/05/04 00:08:08;;;;;;;5.35;3.80;;;;;;;1.93;79.71;95387.59;5026133;28;20052;-71
2021/05/04 00:10:34;;;;;;;5.35;3.80;;;;;;;1.87;79.68;95384.06;5035191;28;20049;-72
2021/05/04 00:13:00;;;;;;;5.35;3.65;;;;;;;1.79;80.83;95389.53;5043912;28;20041;-72
2021/05/04 00:15:26;;;;;;;5.68;3.92;;;;;;;1.72;81.47;95388.81;5041402;28;20403;-72
2021/05/04 00:17:51;;;;;;;4.63;3.30;;;;;;;1.65;81.14;95382.91;5017365;28;20076;-71
2021/05/04 00:20:17;;;;;;;5.20;3.35;;;;;;;1.58;81.64;95371.81;5013738;28;20096;-72
2021/05/04 00:22:43;;;;;;;8.25;3.80;;;;;;;1.77;80.84;95370.81;5039617;28;20037;-72
2021/05/04 00:25:09;;;;;;;6.05;3.70;;;;;;;1.64;81.11;95365.75;5013689;28;20045;-72
2021/05/04 00:27:35;;;;;;;5.55;3.60;;;;;;;1.55;82.08;95368.66;5028983;28;20503;-72
2021/05/04 00:30:00;;;;;;;6.13;4.20;;;;;;;1.61;81.63;95372.19;5032451;28;20045;-72
2021/05/04 00:32:26;;;;;;;5.38;3.50;;;;;;;1.46;82.09;95369.94;5030728;28;20037;-72
2021/05/04 00:34:52;;;;;;;5.00;3.53;;;;;;;1.33;82.71;95370.06;5026719;28;20048;-72
2021/05/04 00:37:17;;;;;;;6.10;3.90;;;;;;;1.33;83.13;95364.88;5030670;28;20458;-72
2021/05/04 00:39:43;;;;;;;5.57;4.03;;;;;;;1.31;82.91;95356.53;5028490;28;20061;-72
2021/05/04 00:42:08;;;;;;;6.20;3.53;;;;;;;1.30;82.41;95354.94;5025253;28;20494;-72
2021/05/04 00:44:34;;;;;;;6.03;3.92;;;;;;;1.30;82.30;95352.34;5026934;28;20045;-72
2021/05/04 00:47:00;;;;;;;5.90;4.03;;;;;;;1.20;82.62;95356.22;5029774;28;20686;-72
2021/05/04 00:49:25;;;;;;;6.32;3.90;;;;;;;1.12;82.98;95351.31;5027502;28;20041;-72
2021/05/04 00:51:52;;;;;;;7.10;3.75;;;;;;;1.10;82.76;95355.91;5031150;28;20044;-72
2021/05/04 00:54:19;;;;;;;5.45;3.85;;;;;;;1.09;82.68;95349.13;5030340;28;20065;-72
2021/05/04 00:56:44;;;;;;;7.13;3.60;;;;;;;1.12;82.74;95340.94;5030592;28;20046;-72
2021/05/04 00:59:12;;;;;;;7.88;4.10;;;;;;;1.06;83.01;95341.78;5022347;28;20045;-71
2021/05/04 01:01:38;;;;;;;5.80;3.53;;;;;;;1.09;83.03;95338.75;5030871;28;20416;-72
2021/05/04 01:04:06;;;;;;;6.93;3.80;;;;;;;1.03;82.90;95327.47;5022962;28;20045;-72
2021/05/04 01:06:32;;;;;;;5.43;3.65;;;;;;;0.95;83.81;95321.75;5030056;28;20457;-72
2021/05/04 01:08:58;;;;;;;5.78;3.75;;;;;;;0.89;84.70;95327.78;5029611;28;20033;-72
2021/05/04 01:11:24;;;;;;;5.57;3.80;;;;;;;0.88;84.22;95316.66;5037910;28;20037;-72
2021/05/04 01:13:56;;;;;;;4.93;3.50;;;;;;;0.89;84.23;95322.59;5033895;28;20419;-72
2021/05/04 01:16:21;;;;;;;5.95;3.65;;;;;;;0.92;83.73;95310.03;5033458;28;20042;-72
2021/05/04 01:18:47;;;;;;;5.25;3.38;;;;;;;1.10;82.50;95311.84;5023991;28;20038;-72
2021/05/04 01:21:13;;;;;;;5.75;3.72;;;;;;;0.89;84.13;95304.47;5032042;28;20052;-72
2021/05/04 01:23:38;;;;;;;6.07;3.75;;;;;;;0.76;84.66;95303.59;5028534;28;20044;-72
2021/05/04 01:26:04;;;;;;;7.00;3.92;;;;;;;0.72;84.82;95302.44;5031098;28;20441;-72
2021/05/04 01:28:31;;;;;;;7.13;3.78;;;;;;;0.77;84.52;95309.56;5027705;28;20422;-72
2021/05/04 01:30:57;;;;;;;5.35;3.67;;;;;;;0.65;84.86;95306.88;5031603;28;20046;-72
2021/05/04 01:33:22;;;;;;;6.30;3.78;;;;;;;0.74;84.28;95299.63;5030894;28;20106;-72
2021/05/04 01:35:48;;;;;;;5.53;3.58;;;;;;;0.73;84.04;95304.00;5016533;28;20492;-72
2021/05/04 01:38:15;;;;;;;4.90;3.30;;;;;;;0.59;84.61;95305.09;5027478;28;20042;-72
2021/05/04 01:40:40;;;;;;;5.68;3.80;;;;;;;0.61;86.07;95305.72;5031491;28;20052;-72
2021/05/04 01:43:06;;;;;;;7.53;3.95;;;;;;;0.55;85.67;95296.16;5030034;28;20042;-72
2021/05/04 01:45:32;;;;;;;6.80;3.70;;;;;;;0.59;85.08;95297.34;5029929;28;20041;-72
2021/05/04 01:47:58;;;;;;;5.38;3.60;;;;;;;0.52;84.85;95292.22;5028721;28;20041;-72
2021/05/04 01:50:23;;;;;;;6.15;3.85;;;;;;;0.50;85.15;95300.22;5041544;28;20426;-72
2021/05/04 01:52:49;;;;;;;5.45;3.60;;;;;;;0.58;85.11;95286.19;5039410;28;20069;-72
2021/05/04 01:55:15;;;;;;;6.70;3.90;;;;;;;0.52;85.37;95292.22;5031148;28;20099;-72
2021/05/04 01:57:40;;;;;;;5.47;3.42;;;;;;;0.50;85.29;95300.22;5029358;28;20112;-72
2021/05/04 02:00:08;;;;;;;5.00;3.60;;;;;;;0.59;85.17;95284.38;5030603;28;20046;-72
2021/05/04 02:02:34;;;;;;;5.50;3.60;;;;;;;0.49;85.15;95293.44;5029518;28;20056;-72
2021/05/04 02:04:59;;;;;;;7.18;3.65;;;;;;;0.43;85.95;95289.13;5030589;28;20041;-72
2021/05/04 02:07:25;;;;;;;5.88;3.63;;;;;;;0.36;86.42;95288.38;5025352;28;20586;-72
2021/05/04 02:09:51;;;;;;;4.72;3.38;;;;;;;0.43;87.43;95283.94;5032824;28;20056;-72
2021/05/04 02:12:17;;;;;;;5.03;3.42;;;;;;;0.43;85.55;95277.94;5038835;28;20056;-72
2021/05/04 02:14:42;;;;;;;5.22;3.30;;;;;;;0.47;84.83;95274.72;5030221;28;20072;-71
2021/05/04 02:17:08;;;;;;;5.75;3.60;;;;;;;0.30;85.83;95273.66;5028324;28;20472;-72
2021/05/04 02:19:34;;;;;;;6.13;3.85;;;;;;;0.28;87.09;95280.84;5025749;28;20041;-72
2021/05/04 02:21:59;;;;;;;5.05;3.38;;;;;;;0.29;87.02;95277.28;5027453;28;20049;-72
2021/05/04 02:24:25;;;;;;;5.63;3.65;;;;;;;0.27;85.98;95274.09;5029055;28;20037;-72
2021/05/04 02:26:51;;;;;;;6.05;3.85;;;;;;;0.16;86.93;95266.00;5028147;28;20072;-72
2021/05/04 02:29:16;;;;;;;5.55;3.55;;;;;;;0.18;87.19;95260.59;5025771;28;20041;-72
2021/05/04 02:31:42;;;;;;;5.22;3.60;;;;;;;0.12;87.59;95262.22;5028355;28;20034;-72
2021/05/04 02:34:07;;;;;;;5.38;3.53;;;;;;;0.21;87.92;95259.41;5029078;28;20095;-72
2021/05/04 02:36:33;;;;;;;4.85;3.58;;;;;;;0.26;87.71;95244.81;5024742;28;20514;-72
2021/05/04 02:38:59;;;;;;;6.22;3.67;;;;;;;0.15;87.49;95250.69;5011208;28;20049;-72
2021/05/04 02:41:25;;;;;;;5.25;3.47;;;;;;;0.12;87.43;95253.69;5028560;28;20513;-72
2021/05/04 02:43:51;;;;;;;6.22;3.90;;;;;;;0.23;88.19;95252.19;5030342;28;20045;-72
2021/05/04 02:46:17;;;;;;;5.32;3.65;;;;;;;0.25;87.34;95239.88;5037617;28;20155;-72
2021/05/04 02:48:43;;;;;;;5.82;3.67;;;;;;;0.42;87.62;95240.91;5038639;28;20087;-72
2021/05/04 02:51:11;;;;;;;6.88;3.80;;;;;;;0.45;87.39;95235.31;5034309;28;20041;-72
2021/05/04 02:53:38;;;;;;;5.07;3.55;;;;;;;0.33;87.10;95227.44;5028387;28;20052;-72
2021/05/04 02:56:05;;;;;;;6.07;3.60;;;;;;;0.41;87.10;95228.97;5030028;28;20041;-71
2021/05/04 02:58:31;;;;;;;6.22;3.85;;;;;;;0.38;87.34;95228.63;5043985;28;20046;-72
2021/05/04 03:00:57;;;;;;;5.18;3.33;;;;;;;0.33;87.88;95224.06;5029227;28;20042;-71
2021/05/04 03:03:23;;;;;;;4.90;3.38;;;;;;;0.52;87.39;95219.72;5028206;28;20868;-72
2021/05/04 03:05:50;;;;;;;4.85;3.22;;;;;;;0.82;85.58;95209.47;5033319;28;20496;-72
2021/05/04 03:08:16;;;;;;;5.55;3.10;;;;;;;1.28;84.00;95214.34;5033805;28;20561;-71
2021/05/04 03:10:42;;;;;;;4.60;3.00;;;;;;;1.50;82.49;95210.28;5028050;28;20030;-72
2021/05/04 03:13:07;;;;;;;3.97;2.85;;;;;;;1.76;80.93;95213.56;5030039;28;20045;-71
2021/05/04 03:15:33;;;;;;;4.60;3.30;;;;;;;1.82;80.83;95217.84;5028681;28;20053;-72
2021/05/04 03:18:00;;;;;;;5.70;3.00;;;;;;;1.83;81.38;95216.06;5027388;28;20359;-72
2021/05/04 03:20:27;;;;;;;4.78;3.10;;;;;;;1.84;80.81;95205.47;5029795;28;20042;-72
2021/05/04 03:22:52;;;;;;;4.90;2.90;;;;;;;1.93;80.67;95207.75;5028349;28;20098;-71
2021/05/04 03:25:18;;;;;;;4.88;2.78;;;;;;;2.07;79.22;95201.34;5025987;28;20041;-72
2021/05/04 03:27:43;;;;;;;4.68;3.00;;;;;;;1.97;79.71;95203.66;5036391;28;20045;-72
2021/05/04 03:30:10;;;;;;;4.80;3.13;;;;;;;1.95;79.70;95200.53;5037769;28;20106;-71
2021/05/04 03:32:40;;;;;;;4.88;2.90;;;;;;;1.99;79.54;95206.84;5024454;28;20048;-71
2021/05/04 03:35:09;;;;;;;5.53;2.90;;;;;;;1.88;80.13;95196.22;5018015;28;20653;-71
2021/05/04 03:37:35;;;;;;;4.03;2.35;;;;;;;1.95;79.66;95203.13;5014531;28;20040;-71
2021/05/04 03:40:01;;;;;;;5.25;3.00;;;;;;;2.02;79.13;95190.84;5031235;28;20290;-72
2021/05/04 03:42:26;;;;;;;5.07;2.95;;;;;;;2.12;78.74;95191.06;5033541;28;20033;-71
2021/05/04 03:44:52;;;;;;;4.80;2.72;;;;;;;2.10;78.90;95193.13;5034927;28;20037;-71
2021/05/04 03:47:17;;;;;;;3.88;2.85;;;;;;;2.11;78.28;95186.88;5035495;28;20387;-71
2021/05/04 03:49:43;;;;;;;4.50;2.70;;;;;;;2.19;77.78;95181.38;5045219;28;20482;-71
2021/05/04 03:52:08;;;;;;;4.20;2.67;;;;;;;2.21;77.55;95194.94;5033659;28;20069;-72
2021/05/04 03:54:34;;;;;;;4.43;2.70;;;;;;;2.18;77.80;95191.97;5032846;28;20041;-72
2021/05/04 03:57:00;;;;;;;4.72;2.90;;;;;;;2.15;78.61;95193.22;5028004;28;20072;-72
2021/05/04 03:59:25;;;;;;;3.20;2.50;;;;;;;2.16;78.31;95192.22;5045805;28;20099;-71
2021/05/04 04:01:51;;;;;;;4.63;2.42;;;;;;;2.05;78.91;95192.97;5020454;28;20038;-72
2021/05/04 04:04:18;;;;;;;6.43;2.47;;;;;;;2.10;78.12;95192.31;5029433;28;20038;-71
2021/05/04 04:06:43;;;;;;;4.30;2.90;;;;;;;2.21;77.77;95189.75;5031917;28;20038;-71
2021/05/04 04:09:09;;;;;;;4.72;2.80;;;;;;;2.15;78.31;95184.66;5018061;28;20140;-72
2021/05/04 04:11:37;;;;;;;7.05;3.05;;;;;;;2.06;78.58;95181.59;5031389;28;20037;-72
2021/05/04 04:14:03;;;;;;;3.83;2.58;;;;;;;2.01;78.91;95173.66;5031801;28;20037;-72
2021/05/04 04:16:28;;;;;;;5.13;2.70;;;;;;;2.07;78.66;95172.78;5032133;28;20045;-73
2021/05/04 04:18:54;;;;;;;4.45;2.70;;;;;;;1.99;79.42;95170.53;5030647;28;20033;-73
2021/05/04 04:21:19;;;;;;;3.85;2.67;;;;;;;1.90;80.29;95173.44;5025160;28;20053;-73
2021/05/04 04:23:45;;;;;;;4.00;2.83;;;;;;;1.92;79.86;95175.00;5030061;28;20038;-75
2021/05/04 04:26:11;;;;;;;5.18;3.00;;;;;;;2.04;78.90;95168.84;5030515;28;20514;-74
2021/05/04 04:28:36;;;;;;;5.45;3.00;;;;;;;2.05;79.13;95175.63;5042212;28;20076;-74
2021/05/04 04:31:02;;;;;;;7.72;2.80;;;;;;;2.12;78.57;95172.13;5031955;28;20041;-73
2021/05/04 04:33:28;;;;;;;6.22;2.95;;;;;;;2.16;78.68;95175.84;5032118;28;20037;-74
2021/05/04 04:35:54;;;;;;;5.75;2.70;;;;;;;2.22;78.33;95174.94;5027350;28;20042;-76
2021/05/04 04:38:20;;;;;;;4.50;2.95;;;;;;;2.24;78.47;95173.72;5026449;28;20052;-73
2021/05/04 04:40:47;;;;;;;4.32;2.90;;;;;;;2.25;79.36;95180.47;5032218;28;20045;-73
2021/05/04 04:43:13;;;;;;;6.40;3.05;;;;;;;2.27;79.28;95176.88;5019606;28;20503;-73
2021/05/04 04:45:38;;;;;;;7.00;2.95;;;;;;;2.52;77.86;95174.06;5019964;28;20052;-73
2021/05/04 04:48:04;;;;;;;5.50;3.08;;;;;;;2.57;78.29;95174.97;5028083;28;20108;-73
2021/05/04 04:50:30;;;;;;;6.75;2.95;;;;;;;2.76;76.66;95174.84;5015443;28;20052;-73
2021/05/04 04:52:56;;;;;;;4.70;2.85;;;;;;;3.13;75.16;95169.31;5032904;28;20496;-73
2021/05/04 04:55:21;;;;;;;4.60;2.88;;;;;;;3.27;75.61;95175.84;5027791;28;20041;-73
2021/05/04 04:57:47;;;;;;;4.22;2.90;;;;;;;3.58;72.30;95166.00;5032921;28;20041;-73
2021/05/04 05:00:13;;;;;;;5.18;2.63;;;;;;;3.93;70.29;95175.44;5027709;28;20479;-73
2021/05/04 05:02:39;;;;;;;4.78;2.65;;;;;;;4.25;69.50;95163.72;5028751;28;20049;-73
2021/05/04 05:05:05;;;;;;;5.05;2.40;;;;;;;4.40;68.08;95163.16;5014549;28;20038;-73
2021/05/04 05:07:30;;;;;;;5.30;2.50;;;;;;;4.59;66.55;95151.44;5026396;28;20103;-73
2021/05/04 05:09:56;;;;;;;5.47;2.35;;;;;;;4.77;66.57;95149.56;5020867;28;20053;-73
2021/05/04 05:12:23;;;;;;;6.18;2.40;;;;;;;4.96;66.02;95152.72;5032139;28;20400;-73
2021/05/04 05:14:49;;;;;;;3.85;2.53;;;;;;;4.99;66.16;95163.44;5031255;28;20511;-73
2021/05/04 05:17:17;;;;;;;8.02;2.70;;;;;;;5.20;64.85;95150.63;5028178;28;20041;-74
2021/05/04 05:19:43;;;;;;;3.95;2.33;;;;;;;5.43;63.64;95146.16;5030991;28;20045;-72
2021/05/04 05:22:08;;;;;;;5.72;2.50;;;;;;;5.62;62.75;95144.03;5032230;28;20041;-73
2021/05/04 05:24:35;;;;;;;4.88;2.60;;;;;;;5.79;62.82;95149.13;5021187;28;20411;-73
2021/05/04 05:27:02;;;;;;;4.15;2.42;;;;;;;6.02;60.96;95148.84;5021571;28;20189;-73
2021/05/04 05:29:31;;;;;;;3.60;2.20;;;;;;;6.30;59.84;95133.13;5032185;28;20499;-72
2021/05/04 05:31:57;;;;;;;4.20;2.28;;;;;;;6.45;59.15;95138.47;5026900;28;20042;-73
2021/05/04 05:34:22;;;;;;;5.35;2.30;;;;;;;6.59;58.78;95130.94;5024623;28;20052;-72
2021/05/04 05:36:48;;;;;;;3.17;2.22;;;;;;;6.83;57.84;95127.94;5028527;28;20045;-72
2021/05/04 05:39:15;;;;;;;4.80;2.35;;;;;;;6.87;58.72;95126.41;5028526;28;20461;-73
2021/05/04 05:41:41;;;;;;;4.35;2.30;;;;;;;6.97;58.26;95131.66;5029724;28;20502;-72
2021/05/04 05:44:07;;;;;;;3.72;2.30;;;;;;;7.15;56.93;95127.03;5030446;28;20042;-72
2021/05/04 05:46:33;;;;;;;4.78;2.22;;;;;;;7.16;57.33;95118.13;5029742;28;20518;-72
2021/05/04 05:48:59;;;;;;;6.60;2.20;;;;;;;7.36;57.24;95115.56;5025005;28;20105;-72
2021/05/04 05:51:25;;;;;;;3.78;2.00;;;;;;;7.54;55.90;95118.75;5030551;28;20496;-73
2021/05/04 05:53:50;;;;;;;3.83;2.33;;;;;;;7.66;55.90;95116.69;5031707;28;20065;-72
2021/05/04 05:56:16;;;;;;;3.17;2.28;;;;;;;7.87;54.81;95121.94;5025345;28;20052;-73
2021/05/04 05:58:42;;;;;;;3.20;2.13;;;;;;;8.02;53.68;95111.47;5034320;28;20521;-72
2021/05/04 06:01:07;;;;;;;3.70;2.10;;;;;;;8.11;53.40;95112.50;5033315;28;20057;-73
2021/05/04 06:03:33;;;;;;;4.28;2.20;;;;;;;8.22;53.34;95107.28;5026851;28;20068;-73
2021/05/04 06:05:59;;;;;;;4.57;2.20;;;;;;;8.44;52.66;95105.16;5011438;28;20046;-72
2021/05/04 06:08:24;;;;;;;4.18;2.40;;;;;;;8.54;51.95;95103.56;5020642;28;20045;-73
2021/05/04 06:10:51;;;;;;;3.53;2.42;;;;;;;8.64;53.13;95098.28;5031260;28;20041;-73
2021/05/04 06:13:17;;;;;;;3.45;2.60;;;;;;;8.73;53.04;95101.94;5029117;28;20048;-73
2021/05/04 06:15:43;;;;;;;3.17;2.20;;;;;;;8.81;51.66;95098.75;5028995;28;20041;-73
2021/05/04 06:18:10;;;;;;;4.40;2.40;;;;;;;8.87;51.49;95104.00;5025338;28;20409;-73
2021/05/04 06:20:37;;;;;;;3.95;2.40;;;;;;;8.94;51.63;95094.78;5031268;28;20049;-72
2021/05/04 06:23:04;;;;;;;3.60;2.40;;;;;;;8.99;50.98;95100.03;5030167;28;20038;-73
2021/05/04 06:25:30;;;;;;;3.65;2.70;;;;;;;9.09;50.43;95099.16;5031012;28;20053;-73
2021/05/04 06:28:00;;;;;;;5.88;3.08;;;;;;;9.22;48.91;95102.28;5013970;28;20100;-73
2021/05/04 06:30:27;;;;;;;5.47;2.92;;;;;;;9.33;49.38;95093.28;5028867;28;20503;-72
2021/05/04 06:32:53;;;;;;;3.80;2.47;;;;;;;9.40;49.36;95098.25;5031063;28;20037;-73
2021/05/04 06:35:20;;;;;;;6.88;2.45;;;;;;;9.41;49.81;95094.56;5026361;28;20038;-72
2021/05/04 06:37:48;;;;;;;4.60;2.38;;;;;;;9.51;48.75;95089.22;5021441;28;20034;-72
2021/05/04 06:40:15;;;;;;;4.20;2.30;;;;;;;9.62;49.30;95095.22;5043580;28;20055;-72
2021/05/04 06:42:40;;;;;;;4.25;2.30;;;;;;;9.71;48.06;95088.31;5049699;28;20044;-72
2021/05/04 06:45:07;;;;;;;3.20;2.25;;;;;;;9.81;48.86;95083.00;5050682;28;20455;-73
2021/05/04 06:47:32;;;;;;;3.40;2.40;;;;;;;10.00;47.57;95087.59;5034411;28;20038;-73
2021/05/04 06:49:58;;;;;;;3.92;2.33;;;;;;;10.05;46.87;95082.28;5021471;28;20042;-73
2021/05/04 06:52:24;;;;;;;3.55;2.22;;;;;;;10.15;47.54;95079.56;5030667;28;20041;-73
2021/05/04 06:54:49;;;;;;;3.30;2.22;;;;;;;10.31;47.48;95068.91;5030918;28;20041;-73
2021/05/04 06:57:15;;;;;;;3.15;2.10;;;;;;;10.42;46.63;95065.16;5025650;28;20415;-72
2021/05/04 06:59:40;;;;;;;4.28;2.30;;;;;;;10.43;46.68;95061.47;5025342;28;20040;-73
2021/05/04 07:02:06;;;;;;;3.45;2.20;;;;;;;10.55;46.58;95059.22;5030577;28;20041;-73
2021/05/04 07:04:32;;;;;;;3.20;2.30;;;;;;;10.75;45.68;95052.16;5030857;28;20506;-73
2021/05/04 07:06:57;;;;;;;3.70;2.50;;;;;;;10.73;44.48;95054.28;5026084;28;20049;-73
2021/05/04 07:09:23;;;;;;;5.13;2.40;;;;;;;10.97;44.90;95059.53;5026911;28;20150;-73
2021/05/04 07:11:48;;;;;;;3.28;2.20;;;;;;;11.06;42.82;95057.06;5052183;28;20045;-73
2021/05/04 07:14:14;;;;;;;3.58;2.47;;;;;;;11.22;43.24;95039.19;5053506;28;20041;-73
2021/05/04 07:16:40;;;;;;;3.15;2.17;;;;;;;11.21;44.04;95042.91;5038732;28;20045;-72
2021/05/04 07:19:06;;;;;;;3.75;2.45;;;;;;;11.26;42.33;95048.91;5028663;28;20065;-72
2021/05/04 07:21:33;;;;;;;3.38;2.20;;;;;;;11.39;43.65;95049.25;5034418;28;20440;-72
2021/05/04 07:23:58;;;;;;;3.83;2.45;;;;;;;11.40;43.15;95045.53;5033800;28;20038;-73
2021/05/04 07:26:24;;;;;;;3.60;2.60;;;;;;;11.57;42.55;95043.19;5024951;28;20037;-72
2021/05/04 07:28:50;;;;;;;4.55;2.53;;;;;;;11.68;41.91;95043.03;5033877;28;20052;-73
2021/05/04 07:31:15;;;;;;;6.13;2.50;;;;;;;11.82;40.64;95051.75;5031292;28;20033;-72
2021/05/04 07:33:41;;;;;;;3.22;2.20;;;;;;;11.83;40.60;95042.78;5033780;28;20033;-73
2021/05/04 07:36:06;;;;;;;4.20;2.42;;;;;;;11.93;40.27;95033.94;5031617;28;20125;-73
2021/05/04 07:38:32;;;;;;;4.30;2.20;;;;;;;12.03;41.00;95040.94;5026426;28;20554;-72
2021/05/04 07:40:58;;;;;;;2.90;2.20;;;;;;;12.04;40.11;95039.84;5033845;28;20095;-72
2021/05/04 07:43:23;;;;;;;6.40;2.53;;;;;;;12.10;40.43;95041.34;5033075;28;20503;-73
2021/05/04 07:45:49;;;;;;;5.18;2.50;;;;;;;12.15;39.99;95049.16;5033946;28;20044;-72
2021/05/04 07:48:17;;;;;;;6.78;2.50;;;;;;;12.13;40.08;95038.13;5019463;28;20053;-72
2021/05/04 07:50:43;;;;;;;7.15;2.60;;;;;;;12.22;39.72;95039.00;5014286;28;20050;-73
2021/05/04 07:53:09;;;;;;;4.47;2.30;;;;;;;12.41;40.78;95040.78;5034689;28;20103;-72
2021/05/04 07:55:35;;;;;;;4.25;2.50;;;;;;;12.44;40.12;95032.28;5034370;28;20484;-72
2021/05/04 07:58:00;;;;;;;2.92;2.17;;;;;;;12.40;39.65;95033.97;5020520;28;20045;-73
2021/05/04 08:00:26;;;;;;;5.68;2.70;;;;;;;12.54;40.21;95024.19;5023458;28;20050;-73
2021/05/04 08:02:52;;;;;;;5.30;2.30;;;;;;;12.61;39.23;95027.22;5033278;28;20030;-72
2021/05/04 08:05:18;;;;;;;5.07;2.17;;;;;;;12.78;39.31;95023.19;5028033;28;20049;-72
2021/05/04 08:07:43;;;;;;;3.50;2.33;;;;;;;12.85;38.66;95017.53;5028712;28;20038;-73
2021/05/04 08:10:10;;;;;;;4.03;2.50;;;;;;;12.84;38.71;95016.72;5012949;28;20461;-72
2021/05/04 08:12:36;;;;;;;3.72;2.53;;;;;;;13.03;38.31;95023.75;5014777;28;20048;-72
2021/05/04 08:15:03;;;;;;;7.03;2.58;;;;;;;13.26;39.33;95012.16;5032650;28;20725;-73
2021/05/04 08:17:31;;;;;;;7.20;2.70;;;;;;;13.34;38.16;95018.59;5038023;28;20042;-73
2021/05/04 08:19:59;;;;;;;4.68;2.30;;;;;;;13.33;37.78;95007.25;5043545;28;20509;-72
2021/05/04 08:22:25;;;;;;;5.13;2.53;;;;;;;13.27;38.37;95013.69;5053955;28;20044;-73
2021/05/04 08:24:51;;;;;;;4.22;2.40;;;;;;;13.34;37.98;95000.88;5030022;28;20041;-73
2021/05/04 08:27:16;;;;;;;5.05;2.40;;;;;;;13.29;37.81;95008.91;5026047;28;20042;-73
2021/05/04 08:29:42;;;;;;;6.10;2.65;;;;;;;13.62;38.75;95011.38;5027929;28;20113;-73
2021/05/04 08:32:08;;;;;;;4.72;2.50;;;;;;;13.85;39.08;95011.38;5013620;28;20038;-73
2021/05/04 08:34:33;;;;;;;4.35;2.70;;;;;;;13.74;37.33;95015.34;5025008;28;20038;-73
2021/05/04 08:37:00;;;;;;;5.75;3.08;;;;;;;13.56;37.20;95009.94;5032995;28;20522;-72
2021/05/04 08:39:26;;;;;;;4.20;2.60;;;;;;;13.46;37.94;95012.78;5014744;28;20046;-73
2021/05/04 08:41:52;;;;;;;5.65;2.40;;;;;;;13.68;37.38;95007.53;5012815;28;20060;-73
2021/05/04 08:44:20;;;;;;;4.03;2.50;;;;;;;13.75;36.92;95001.81;5019228;28;20045;-72
2021/05/04 08:46:47;;;;;;;4.18;2.30;;;;;;;13.88;37.80;95000.19;5024075;28;20042;-72
2021/05/04 08:49:15;;;;;;;4.88;2.53;;;;;;;14.14;37.09;95010.91;5032397;28;20041;-73
2021/05/04 08:51:45;;;;;;;3.80;2.35;;;;;;;14.22;36.58;94998.78;5027501;28;20041;-72
2021/05/04 08:54:11;;;;;;;5.07;2.42;;;;;;;14.41;36.30;95001.22;5030666;28;20049;-72
2021/05/04 08:56:40;;;;;;;3.88;2.40;;;;;;;14.43;35.46;95003.56;5033502;28;20514;-73
2021/05/04 08:59:06;;;;;;;4.28;2.60;;;;;;;14.42;36.18;94996.69;5029481;28;20053;-73
2021/05/04 09:01:31;;;;;;;3.60;2.42;;;;;;;14.69;35.63;95001.78;5028521;28;20120;-72
2021/05/04 09:04:02;;;;;;;3.90;2.40;;;;;;;14.95;36.33;94998.41;5030911;28;20045;-72
2021/05/04 09:06:33;;;;;;;5.05;2.47;;;;;;;15.00;35.50;94997.50;5030900;28;20403;-73
2021/05/04 09:11:58;;;;;;;4.45;2.33;;;;;;;14.90;33.48;94993.28;5013031;28;20042;-72
2021/05/04 09:14:38;;;;;;;4.38;2.50;;;;;;;14.89;33.90;94989.06;5013256;28;20046;-73
2021/05/04 09:22:03;;;;;;;4.00;2.47;;;;;;;14.83;33.92;94990.31;5012748;28;20056;-73
2021/05/04 09:24:33;;;;;;;3.15;2.22;;;;;;;14.97;34.79;94988.31;5012766;28;20037;-73
2021/05/04 09:27:06;;;;;;;3.10;2.40;;;;;;;15.34;35.63;94988.00;5030865;28;20037;-73
2021/05/04 09:29:39;;;;;;;4.60;2.50;;;;;;;15.31;32.47;94976.16;5042100;28;20498;-73
2021/05/04 09:32:13;;;;;;;5.22;2.40;;;;;;;15.19;33.78;94966.19;5046914;28;20036;-73
2021/05/04 09:34:50;;;;;;;6.00;2.53;;;;;;;15.35;33.91;94963.84;5012570;28;20041;-73
2021/05/04 09:37:37;;;;;;;5.07;2.60;;;;;;;15.50;31.99;94964.44;5034779;28;20048;-72
2021/05/04 09:40:26;;;;;;;5.43;2.50;;;;;;;15.54;31.63;94960.06;5051730;28;20113;-72
2021/05/04 09:43:02;;;;;;;3.78;2.22;;;;;;;15.68;31.58;94958.03;5051916;28;20426;-72
2021/05/04 09:45:29;;;;;;;3.80;2.38;;;;;;;15.73;31.36;94949.13;5051499;28;20051;-72
2021/05/04 09:48:28;;;;;;;5.95;2.50;;;;;;;15.89;30.49;94960.06;5034564;28;20038;-72
2021/05/04 09:51:10;;;;;;;3.58;2.38;;;;;;;15.65;31.09;94950.69;5029267;28;20504;-73
2021/05/04 09:53:49;;;;;;;2.97;2.30;;;;;;;15.89;31.15;94931.66;5031758;28;20080;-72
2021/05/04 09:56:17;;;;;;;3.42;2.20;;;;;;;16.01;29.77;94933.63;5031254;28;20041;-73
2021/05/04 09:58:48;;;;;;;4.13;2.38;;;;;;;16.18;29.21;94939.97;5039622;28;20108;-73
2021/05/04 10:01:19;;;;;;;3.92;2.50;;;;;;;16.09;28.57;94919.56;5032376;28;20045;-73
2021/05/04 10:03:47;;;;;;;2.83;2.33;;;;;;;16.30;29.23;94916.16;5031986;28;20088;-73
2021/05/04 10:06:14;;;;;;;5.35;2.30;;;;;;;16.25;27.32;94922.44;5021730;28;20050;-73
2021/05/04 10:08:40;;;;;;;5.05;2.30;;;;;;;16.72;27.86;94916.25;5028799;28;20044;-73
2021/05/04 10:11:09;;;;;;;5.25;2.50;;;;;;;16.48;27.57;94911.56;5037142;28;20068;-73
2021/05/04 10:13:36;;;;;;;4.65;2.20;;;;;;;16.84;27.55;94901.47;5032060;28;20079;-73
2021/05/04 10:16:04;;;;;;;3.65;2.40;;;;;;;17.17;26.18;94903.44;5031290;28;20045;-73
2021/05/04 10:18:30;;;;;;;2.78;2.22;;;;;;;17.25;25.37;94894.63;5025677;28;20048;-73
2021/05/04 10:20:58;;;;;;;5.53;2.40;;;;;;;17.30;25.58;94902.41;5029876;28;20045;-73
2021/05/04 10:23:25;;;;;;;6.50;2.50;;;;;;;17.25;25.33;94895.38;5031201;28;20076;-74
2021/05/04 10:26:03;;;;;;;4.18;2.20;;;;;;;17.18;25.02;94894.38;5016712;28;20038;-73
2021/05/04 10:28:32;;;;;;;4.05;2.25;;;;;;;17.48;25.43;94897.69;5019294;28;20041;-73
2021/05/04 10:31:06;;;;;;;10.35;2.38;;;;;;;17.71;24.83;94895.41;5028892;28;20042;-73
2021/05/04 10:33:37;;;;;;;4.15;2.33;;;;;;;17.78;25.01;94890.31;5018144;28;20115;-73
2021/05/04 10:36:04;;;;;;;3.20;2.13;;;;;;;17.91;25.52;94893.81;5019549;28;20048;-73
2021/05/04 10:38:55;;;;;;;3.33;2.20;;;;;;;17.66;25.78;94892.97;5010419;28;20042;-73
2021/05/04 10:41:22;;;;;;;3.08;2.30;;;;;;;18.01;25.38;94879.28;5011516;28;20133;-73
2021/05/04 10:44:07;;;;;;;4.07;2.40;;;;;;;18.34;25.47;94884.50;5010821;28;20076;-73
2021/05/04 10:46:40;;;;;;;7.00;2.30;;;;;;;17.98;26.32;94878.06;5011329;28;20045;-73
2021/05/04 10:49:08;;;;;;;3.10;2.30;;;;;;;17.68;25.60;94882.75;5013019;28;20038;-73
2021/05/04 10:51:48;;;;;;;2.90;2.22;;;;;;;18.27;24.84;94872.84;5026593;28;20092;-73
2021/05/04 10:54:22;;;;;;;4.40;2.40;;;;;;;18.71;23.63;94867.69;5011054;28;20034;-73
2021/05/04 10:56:57;;;;;;;3.37;2.30;;;;;;;18.65;23.66;94867.16;5010429;28;20565;-73
2021/05/04 10:59:23;;;;;;;3.65;2.42;;;;;;;19.39;23.35;94863.47;5012353;28;20080;-73
2021/05/04 11:02:10;;;;;;;3.30;2.40;;;;;;;20.12;23.09;94861.47;5030472;28;20045;-73
2021/05/04 11:04:44;;;;;;;7.20;2.35;;;;;;;20.59;23.09;94849.16;5011525;28;20072;-73
2021/05/04 11:07:10;;;;;;;8.57;2.70;;;;;;;20.03;24.24;94855.56;5011112;28;20088;-73
2021/05/04 11:09:39;;;;;;;3.15;2.38;;;;;;;20.28;22.51;94847.34;5011941;28;20038;-72
2021/05/04 11:12:09;;;;;;;3.33;2.40;;;;;;;20.00;23.78;94845.56;5028877;28;20041;-73
2021/05/04 11:14:39;;;;;;;3.25;2.30;;;;;;;20.63;25.02;94843.88;5030460;28;20073;-72
2021/05/04 11:17:11;;;;;;;3.10;2.30;;;;;;;20.64;22.26;94829.41;5030623;28;20045;-73
2021/05/04 11:19:40;;;;;;;4.95;2.10;;;;;;;19.92;24.34;94843.84;5042139;28;20120;-73
2021/05/04 11:22:15;;;;;;;3.10;2.28;;;;;;;20.26;23.67;94837.00;5028338;28;20129;-73
2021/05/04 11:24:49;;;;;;;3.53;2.30;;;;;;;20.24;23.27;94840.03;5030117;28;20041;-73
2021/05/04 11:27:18;;;;;;;2.40;2.08;;;;;;;19.64;23.59;94832.09;5015594;28;20492;-73
2021/05/04 11:29:46;;;;;;;7.25;2.42;;;;;;;19.24;24.23;94842.88;5025622;28;20038;-73
2021/05/04 11:32:16;;;;;;;6.07;2.10;;;;;;;18.86;25.20;94835.03;5026113;28;20086;-73
2021/05/04 11:34:44;;;;;;;5.60;2.38;;;;;;;19.02;25.38;94831.63;5040701;28;20045;-72
2021/05/04 11:37:35;;;;;;;5.95;2.33;;;;;;;19.97;23.92;94830.22;5048999;28;20052;-73
2021/05/04 11:40:18;;;;;;;4.57;2.17;;;;;;;20.97;23.47;94814.81;5010646;28;20088;-73
2021/05/04 11:42:52;;;;;;;3.60;2.25;;;;;;;22.15;21.94;94816.03;5030957;28;20041;-73
2021/05/04 11:45:20;;;;;;;4.63;2.45;;;;;;;21.90;22.52;94827.16;5043607;28;20080;-73
2021/05/04 11:47:50;;;;;;;2.92;2.20;;;;;;;21.52;22.23;94818.13;5016358;28;20042;-73